sensor_id;sensor_type;location;lat;lon;timestamp;temperature;humidity
22827;DHT22;11580;52.562;13.418;2023-05-19T00:01:44;13.10;23.70
22827;DHT22;11580;52.562;13.418;2023-05-19T00:04:14;13.00;23.00
22827;DHT22;11580;52.562;13.418;2023-05-19T00:06:49;13.00;23.10
22827;DHT22;11580;52.562;13.418;2023-05-19T00:09:17;12.90;23.80
22827;DHT22;11580;52.562;13.418;2023-05-19T00:11:45;12.90;23.20
22827;DHT22;11580;52.562;13.418;2023-05-19T00:14:12;12.90;23.20
22827;DHT22;11580;52.562;13.418;2023-05-19T00:16:40;12.80;23.10
22827;DHT22;11580;52.562;13.418;2023-05-19T00:19:08;12.80;23.20
22827;DHT22;11580;52.562;13.418;2023-05-19T00:21:35;12.80;23.80
22827;DHT22;11580;52.562;13.418;2023-05-19T00:24:05;12.70;23.80
22827;DHT22;11580;52.562;13.418;2023-05-19T00:26:33;12.70;23.60
22827;DHT22;11580;52.562;13.418;2023-05-19T00:29:03;12.70;23.90
22827;DHT22;11580;52.562;13.418;2023-05-19T00:31:31;12.70;23.30
22827;DHT22;11580;52.562;13.418;2023-05-19T00:34:00;12.60;23.30
22827;DHT22;11580;52.562;13.418;2023-05-19T00:36:27;12.60;23.40
22827;DHT22;11580;52.562;13.418;2023-05-19T00:38:55;12.60;23.40
22827;DHT22;11580;52.562;13.418;2023-05-19T00:41:24;12.50;23.50
22827;DHT22;11580;52.562;13.418;2023-05-19T00:43:51;12.50;24.30
22827;DHT22;11580;52.562;13.418;2023-05-19T00:46:19;12.50;23.60
22827;DHT22;11580;52.562;13.418;2023-05-19T00:48:47;12.60;23.70
22827;DHT22;11580;52.562;13.418;2023-05-19T00:51:14;12.40;23.60
22827;DHT22;11580;52.562;13.418;2023-05-19T00:53:43;12.30;23.60
22827;DHT22;11580;52.562;13.418;2023-05-19T00:56:14;12.30;23.70
22827;DHT22;11580;52.562;13.418;2023-05-19T00:58:44;12.30;23.70
22827;DHT22;11580;52.562;13.418;2023-05-19T01:01:11;12.20;24.00
22827;DHT22;11580;52.562;13.418;2023-05-19T01:03:43;12.20;23.70
22827;DHT22;11580;52.562;13.418;2023-05-19T01:06:11;12.20;24.00
22827;DHT22;11580;52.562;13.418;2023-05-19T01:08:39;12.20;23.80
22827;DHT22;11580;52.562;13.418;2023-05-19T01:11:07;12.10;23.80
22827;DHT22;11580;52.562;13.418;2023-05-19T01:13:35;12.10;24.50
22827;DHT22;11580;52.562;13.418;2023-05-19T01:16:14;12.10;23.90
22827;DHT22;11580;52.562;13.418;2023-05-19T01:18:54;12.10;24.70
22827;DHT22;11580;52.562;13.418;2023-05-19T01:25:03;12.10;24.80
22827;DHT22;11580;52.562;13.418;2023-05-19T01:30:46;12.00;24.30
22827;DHT22;11580;52.562;13.418;2023-05-19T01:33:15;12.00;24.70
22827;DHT22;11580;52.562;13.418;2023-05-19T01:35:44;11.90;24.40
22827;DHT22;11580;52.562;13.418;2023-05-19T01:38:16;11.90;23.90
22827;DHT22;11580;52.562;13.418;2023-05-19T01:40:46;11.90;24.20
22827;DHT22;11580;52.562;13.418;2023-05-19T01:43:16;11.80;24.10
22827;DHT22;11580;52.562;13.418;2023-05-19T01:45:47;11.80;24.20
22827;DHT22;11580;52.562;13.418;2023-05-19T01:48:15;11.80;24.90
22827;DHT22;11580;52.562;13.418;2023-05-19T01:50:45;11.70;24.60
22827;DHT22;11580;52.562;13.418;2023-05-19T01:53:12;11.70;24.70
22827;DHT22;11580;52.562;13.418;2023-05-19T01:55:43;11.70;24.10
22827;DHT22;11580;52.562;13.418;2023-05-19T01:58:18;11.70;24.60
22827;DHT22;11580;52.562;13.418;2023-05-19T02:00:56;11.90;24.90
22827;DHT22;11580;52.562;13.418;2023-05-19T02:03:38;11.60;24.90
22827;DHT22;11580;52.562;13.418;2023-05-19T02:09:14;11.60;24.90
22827;DHT22;11580;52.562;13.418;2023-05-19T02:11:53;11.60;24.30
22827;DHT22;11580;52.562;13.418;2023-05-19T02:14:29;11.50;24.50
22827;DHT22;11580;52.562;13.418;2023-05-19T02:17:03;11.50;24.70
22827;DHT22;11580;52.562;13.418;2023-05-19T02:19:38;11.50;24.70
22827;DHT22;11580;52.562;13.418;2023-05-19T02:22:05;11.50;25.00
22827;DHT22;11580;52.562;13.418;2023-05-19T02:24:32;11.50;24.40
22827;DHT22;11580;52.562;13.418;2023-05-19T02:27:01;11.40;24.40
22827;DHT22;11580;52.562;13.418;2023-05-19T02:29:28;11.50;24.60
22827;DHT22;11580;52.562;13.418;2023-05-19T02:31:55;11.50;24.60
22827;DHT22;11580;52.562;13.418;2023-05-19T02:34:24;11.40;24.60
22827;DHT22;11580;52.562;13.418;2023-05-19T02:36:51;11.40;24.60
22827;DHT22;11580;52.562;13.418;2023-05-19T02:39:18;11.40;24.60
22827;DHT22;11580;52.562;13.418;2023-05-19T02:41:46;11.50;24.70
22827;DHT22;11580;52.562;13.418;2023-05-19T02:44:13;11.50;24.70
22827;DHT22;11580;52.562;13.418;2023-05-19T02:46:40;11.60;25.30
22827;DHT22;11580;52.562;13.418;2023-05-19T02:49:07;11.50;24.70
22827;DHT22;11580;52.562;13.418;2023-05-19T02:51:37;11.60;24.70
22827;DHT22;11580;52.562;13.418;2023-05-19T02:54:05;11.70;24.80
22827;DHT22;11580;52.562;13.418;2023-05-19T02:56:32;11.70;24.80
22827;DHT22;11580;52.562;13.418;2023-05-19T02:59:00;11.70;24.70
22827;DHT22;11580;52.562;13.418;2023-05-19T03:01:27;11.70;24.60
22827;DHT22;11580;52.562;13.418;2023-05-19T03:03:54;11.70;24.60
22827;DHT22;11580;52.562;13.418;2023-05-19T03:06:21;11.70;24.60
22827;DHT22;11580;52.562;13.418;2023-05-19T03:08:50;11.70;24.60
22827;DHT22;11580;52.562;13.418;2023-05-19T03:11:17;11.70;24.80
22827;DHT22;11580;52.562;13.418;2023-05-19T03:13:44;11.80;24.80
22827;DHT22;11580;52.562;13.418;2023-05-19T03:16:11;11.70;24.70
22827;DHT22;11580;52.562;13.418;2023-05-19T03:18:39;11.70;24.80
22827;DHT22;11580;52.562;13.418;2023-05-19T03:21:06;11.70;24.80
22827;DHT22;11580;52.562;13.418;2023-05-19T03:23:34;11.70;24.80
22827;DHT22;11580;52.562;13.418;2023-05-19T03:26:02;11.70;24.80
22827;DHT22;11580;52.562;13.418;2023-05-19T03:28:30;11.80;25.00
22827;DHT22;11580;52.562;13.418;2023-05-19T03:30:57;11.80;24.90
22827;DHT22;11580;52.562;13.418;2023-05-19T03:33:28;11.80;24.90
22827;DHT22;11580;52.562;13.418;2023-05-19T03:35:56;11.80;24.90
22827;DHT22;11580;52.562;13.418;2023-05-19T03:38:24;11.80;24.90
22827;DHT22;11580;52.562;13.418;2023-05-19T03:40:56;11.90;24.90
22827;DHT22;11580;52.562;13.418;2023-05-19T03:43:25;11.90;24.90
22827;DHT22;11580;52.562;13.418;2023-05-19T03:45:56;11.90;25.50
22827;DHT22;11580;52.562;13.418;2023-05-19T03:48:44;11.90;24.90
22827;DHT22;11580;52.562;13.418;2023-05-19T03:51:30;12.00;25.00
22827;DHT22;11580;52.562;13.418;2023-05-19T03:54:08;12.00;25.00
22827;DHT22;11580;52.562;13.418;2023-05-19T03:56:38;12.10;25.10
22827;DHT22;11580;52.562;13.418;2023-05-19T03:59:08;12.10;25.40
22827;DHT22;11580;52.562;13.418;2023-05-19T04:01:36;12.20;25.40
22827;DHT22;11580;52.562;13.418;2023-05-19T04:04:04;12.30;25.30
22827;DHT22;11580;52.562;13.418;2023-05-19T04:06:31;12.40;25.50
22827;DHT22;11580;52.562;13.418;2023-05-19T04:08:58;12.50;26.00
22827;DHT22;11580;52.562;13.418;2023-05-19T04:11:25;12.60;25.50
22827;DHT22;11580;52.562;13.418;2023-05-19T04:13:52;12.80;25.70
22827;DHT22;11580;52.562;13.418;2023-05-19T04:16:21;13.00;25.70
22827;DHT22;11580;52.562;13.418;2023-05-19T04:18:48;13.30;25.90
22827;DHT22;11580;52.562;13.418;2023-05-19T04:21:15;13.50;26.00
22827;DHT22;11580;52.562;13.418;2023-05-19T04:23:43;13.80;26.10
22827;DHT22;11580;52.562;13.418;2023-05-19T04:26:10;14.10;25.90
22827;DHT22;11580;52.562;13.418;2023-05-19T04:28:39;14.50;25.80
22827;DHT22;11580;52.562;13.418;2023-05-19T04:31:09;14.80;25.40
22827;DHT22;11580;52.562;13.418;2023-05-19T04:33:39;15.10;24.90
22827;DHT22;11580;52.562;13.418;2023-05-19T04:36:08;15.30;24.50
22827;DHT22;11580;52.562;13.418;2023-05-19T04:38:37;15.60;24.20
22827;DHT22;11580;52.562;13.418;2023-05-19T04:41:07;15.70;24.00
22827;DHT22;11580;52.562;13.418;2023-05-19T04:43:36;15.80;23.80
22827;DHT22;11580;52.562;13.418;2023-05-19T04:46:06;15.90;23.70
22827;DHT22;11580;52.562;13.418;2023-05-19T04:48:35;16.00;23.60
22827;DHT22;11580;52.562;13.418;2023-05-19T04:51:04;16.10;23.40
22827;DHT22;11580;52.562;13.418;2023-05-19T04:53:32;16.30;23.40
22827;DHT22;11580;52.562;13.418;2023-05-19T04:56:00;16.40;23.90
22827;DHT22;11580;52.562;13.418;2023-05-19T04:58:29;16.50;23.00
22827;DHT22;11580;52.562;13.418;2023-05-19T05:00:57;16.60;23.10
22827;DHT22;11580;52.562;13.418;2023-05-19T05:03:24;16.70;23.20
22827;DHT22;11580;52.562;13.418;2023-05-19T05:05:51;16.70;23.20
22827;DHT22;11580;52.562;13.418;2023-05-19T05:08:20;16.80;23.10
22827;DHT22;11580;52.562;13.418;2023-05-19T05:10:49;16.90;23.40
22827;DHT22;11580;52.562;13.418;2023-05-19T05:13:19;16.90;22.70
22827;DHT22;11580;52.562;13.418;2023-05-19T05:15:48;17.00;22.60
22827;DHT22;11580;52.562;13.418;2023-05-19T05:18:17;17.00;22.40
22827;DHT22;11580;52.562;13.418;2023-05-19T05:20:45;17.10;22.40
22827;DHT22;11580;52.562;13.418;2023-05-19T05:23:15;17.10;22.40
22827;DHT22;11580;52.562;13.418;2023-05-19T05:25:46;17.00;22.40
22827;DHT22;11580;52.562;13.418;2023-05-19T05:28:15;17.00;22.40
22827;DHT22;11580;52.562;13.418;2023-05-19T05:30:43;17.00;23.00
22827;DHT22;11580;52.562;13.418;2023-05-19T05:33:13;17.00;22.40
22827;DHT22;11580;52.562;13.418;2023-05-19T05:35:41;16.90;22.40
22827;DHT22;11580;52.562;13.418;2023-05-19T05:38:10;16.90;23.10
22827;DHT22;11580;52.562;13.418;2023-05-19T05:40:38;16.80;22.60
22827;DHT22;11580;52.562;13.418;2023-05-19T05:43:08;16.80;22.70
22827;DHT22;11580;52.562;13.418;2023-05-19T05:45:41;16.80;23.00
22827;DHT22;11580;52.562;13.418;2023-05-19T05:48:09;16.70;23.20
22827;DHT22;11580;52.562;13.418;2023-05-19T05:50:38;16.70;23.20
22827;DHT22;11580;52.562;13.418;2023-05-19T05:53:06;16.80;23.20
22827;DHT22;11580;52.562;13.418;2023-05-19T05:55:38;16.90;23.30
22827;DHT22;11580;52.562;13.418;2023-05-19T05:58:08;17.00;23.40
22827;DHT22;11580;52.562;13.418;2023-05-19T06:00:36;17.10;23.50
22827;DHT22;11580;52.562;13.418;2023-05-19T06:03:03;17.30;23.60
22827;DHT22;11580;52.562;13.418;2023-05-19T06:05:30;17.40;23.60
22827;DHT22;11580;52.562;13.418;2023-05-19T06:07:57;17.50;23.70
22827;DHT22;11580;52.562;13.418;2023-05-19T06:10:27;17.70;23.50
22827;DHT22;11580;52.562;13.418;2023-05-19T06:12:54;17.80;23.30
22827;DHT22;11580;52.562;13.418;2023-05-19T06:15:24;17.90;23.30
22827;DHT22;11580;52.562;13.418;2023-05-19T06:18:05;18.10;23.30
22827;DHT22;11580;52.562;13.418;2023-05-19T06:20:32;18.20;23.40
22827;DHT22;11580;52.562;13.418;2023-05-19T06:23:00;18.40;23.10
22827;DHT22;11580;52.562;13.418;2023-05-19T06:25:28;18.50;23.00
22827;DHT22;11580;52.562;13.418;2023-05-19T06:27:56;18.70;23.00
22827;DHT22;11580;52.562;13.418;2023-05-19T06:30:25;18.80;22.70
22827;DHT22;11580;52.562;13.418;2023-05-19T06:33:01;18.80;22.60
22827;DHT22;11580;52.562;13.418;2023-05-19T06:35:29;18.90;22.60
22827;DHT22;11580;52.562;13.418;2023-05-19T06:37:56;18.90;22.50
22827;DHT22;11580;52.562;13.418;2023-05-19T06:40:24;18.90;22.40
22827;DHT22;11580;52.562;13.418;2023-05-19T06:42:52;19.00;22.50
22827;DHT22;11580;52.562;13.418;2023-05-19T06:45:39;19.00;22.40
22827;DHT22;11580;52.562;13.418;2023-05-19T06:48:07;19.00;22.20
22827;DHT22;11580;52.562;13.418;2023-05-19T06:50:34;18.90;22.10
22827;DHT22;11580;52.562;13.418;2023-05-19T06:53:01;18.90;22.20
22827;DHT22;11580;52.562;13.418;2023-05-19T06:55:29;18.90;22.30
22827;DHT22;11580;52.562;13.418;2023-05-19T06:57:56;18.80;22.40
22827;DHT22;11580;52.562;13.418;2023-05-19T07:00:24;18.80;22.50
22827;DHT22;11580;52.562;13.418;2023-05-19T07:02:53;18.80;22.60
22827;DHT22;11580;52.562;13.418;2023-05-19T07:05:21;18.80;22.60
22827;DHT22;11580;52.562;13.418;2023-05-19T07:07:52;18.80;22.70
22827;DHT22;11580;52.562;13.418;2023-05-19T07:10:23;18.80;22.80
22827;DHT22;11580;52.562;13.418;2023-05-19T07:12:51;18.90;23.00
22827;DHT22;11580;52.562;13.418;2023-05-19T07:15:21;18.90;23.00
22827;DHT22;11580;52.562;13.418;2023-05-19T07:17:48;19.00;23.00
22827;DHT22;11580;52.562;13.418;2023-05-19T07:20:17;19.00;23.50
22827;DHT22;11580;52.562;13.418;2023-05-19T07:22:44;19.10;22.90
22827;DHT22;11580;52.562;13.418;2023-05-19T07:25:11;19.10;23.10
22827;DHT22;11580;52.562;13.418;2023-05-19T07:27:39;19.20;23.10
22827;DHT22;11580;52.562;13.418;2023-05-19T07:30:07;19.30;23.70
22827;DHT22;11580;52.562;13.418;2023-05-19T07:32:35;19.40;23.20
22827;DHT22;11580;52.562;13.418;2023-05-19T07:35:02;19.50;22.90
22827;DHT22;11580;52.562;13.418;2023-05-19T07:37:32;19.60;22.90
22827;DHT22;11580;52.562;13.418;2023-05-19T07:40:00;19.70;22.80
22827;DHT22;11580;52.562;13.418;2023-05-19T07:42:27;19.70;22.70
22827;DHT22;11580;52.562;13.418;2023-05-19T07:44:55;19.80;22.80
22827;DHT22;11580;52.562;13.418;2023-05-19T07:47:22;20.00;22.80
22827;DHT22;11580;52.562;13.418;2023-05-19T07:49:49;20.10;22.70
22827;DHT22;11580;52.562;13.418;2023-05-19T07:52:16;20.20;22.70
22827;DHT22;11580;52.562;13.418;2023-05-19T07:54:45;20.30;22.70
22827;DHT22;11580;52.562;13.418;2023-05-19T07:57:12;20.40;22.30
22827;DHT22;11580;52.562;13.418;2023-05-19T07:59:39;20.50;22.10
22827;DHT22;11580;52.562;13.418;2023-05-19T08:02:06;20.60;22.60
22827;DHT22;11580;52.562;13.418;2023-05-19T08:04:34;20.60;21.90
22827;DHT22;11580;52.562;13.418;2023-05-19T08:07:01;20.70;22.40
22827;DHT22;11580;52.562;13.418;2023-05-19T08:09:28;20.70;21.80
22827;DHT22;11580;52.562;13.418;2023-05-19T08:11:57;20.80;21.90
22827;DHT22;11580;52.562;13.418;2023-05-19T08:14:26;20.90;21.70
22827;DHT22;11580;52.562;13.418;2023-05-19T08:16:53;21.00;21.90
22827;DHT22;11580;52.562;13.418;2023-05-19T08:19:20;21.10;21.80
22827;DHT22;11580;52.562;13.418;2023-05-19T08:21:47;21.10;21.50
22827;DHT22;11580;52.562;13.418;2023-05-19T08:24:14;21.20;21.40
22827;DHT22;11580;52.562;13.418;2023-05-19T08:26:42;21.30;21.50
22827;DHT22;11580;52.562;13.418;2023-05-19T08:29:11;21.30;22.00
22827;DHT22;11580;52.562;13.418;2023-05-19T08:31:38;21.30;21.30
22827;DHT22;11580;52.562;13.418;2023-05-19T08:34:05;21.30;22.00
22827;DHT22;11580;52.562;13.418;2023-05-19T08:36:33;21.40;21.20
22827;DHT22;11580;52.562;13.418;2023-05-19T08:39:00;21.40;21.70
22827;DHT22;11580;52.562;13.418;2023-05-19T08:41:27;21.40;21.20
22827;DHT22;11580;52.562;13.418;2023-05-19T08:43:54;21.50;21.20
22827;DHT22;11580;52.562;13.418;2023-05-19T08:46:24;21.50;21.00
22827;DHT22;11580;52.562;13.418;2023-05-19T08:48:53;21.60;20.60
22827;DHT22;11580;52.562;13.418;2023-05-19T08:51:34;21.70;20.40
22827;DHT22;11580;52.562;13.418;2023-05-19T08:54:13;21.70;19.80
22827;DHT22;11580;52.562;13.418;2023-05-19T08:56:43;21.80;19.60
22827;DHT22;11580;52.562;13.418;2023-05-19T08:59:12;21.90;19.90
22827;DHT22;11580;52.562;13.418;2023-05-19T09:01:42;21.90;19.40
22827;DHT22;11580;52.562;13.418;2023-05-19T09:04:11;22.00;19.40
22827;DHT22;11580;52.562;13.418;2023-05-19T09:06:39;22.00;19.50
22827;DHT22;11580;52.562;13.418;2023-05-19T09:09:07;22.10;19.30
22827;DHT22;11580;52.562;13.418;2023-05-19T09:11:34;22.10;19.20
22827;DHT22;11580;52.562;13.418;2023-05-19T09:14:02;22.20;19.30
22827;DHT22;11580;52.562;13.418;2023-05-19T09:16:30;22.30;19.10
22827;DHT22;11580;52.562;13.418;2023-05-19T09:18:59;22.40;19.10
22827;DHT22;11580;52.562;13.418;2023-05-19T09:21:27;22.50;18.90
22827;DHT22;11580;52.562;13.418;2023-05-19T09:23:56;22.70;18.90
22827;DHT22;11580;52.562;13.418;2023-05-19T09:26:23;22.80;18.90
22827;DHT22;11580;52.562;13.418;2023-05-19T09:28:50;22.90;18.50
22827;DHT22;11580;52.562;13.418;2023-05-19T09:31:18;23.00;18.30
22827;DHT22;11580;52.562;13.418;2023-05-19T09:33:45;23.10;18.00
22827;DHT22;11580;52.562;13.418;2023-05-19T09:36:13;23.10;18.60
22827;DHT22;11580;52.562;13.418;2023-05-19T09:38:41;23.20;18.00
22827;DHT22;11580;52.562;13.418;2023-05-19T09:41:08;23.20;18.10
22827;DHT22;11580;52.562;13.418;2023-05-19T09:43:36;23.30;17.80
22827;DHT22;11580;52.562;13.418;2023-05-19T09:46:03;23.40;17.90
22827;DHT22;11580;52.562;13.418;2023-05-19T09:48:31;23.50;17.50
22827;DHT22;11580;52.562;13.418;2023-05-19T09:50:59;23.50;17.50
22827;DHT22;11580;52.562;13.418;2023-05-19T09:53:28;23.60;17.60
22827;DHT22;11580;52.562;13.418;2023-05-19T09:55:57;23.60;18.10
22827;DHT22;11580;52.562;13.418;2023-05-19T09:58:25;23.70;17.50
22827;DHT22;11580;52.562;13.418;2023-05-19T10:00:52;23.70;17.60
22827;DHT22;11580;52.562;13.418;2023-05-19T10:03:21;23.70;17.60
22827;DHT22;11580;52.562;13.418;2023-05-19T10:05:50;23.80;18.20
22827;DHT22;11580;52.562;13.418;2023-05-19T10:08:19;23.80;17.70
22827;DHT22;11580;52.562;13.418;2023-05-19T10:10:47;23.90;17.70
22827;DHT22;11580;52.562;13.418;2023-05-19T10:13:15;24.00;17.30
22827;DHT22;11580;52.562;13.418;2023-05-19T10:15:42;24.20;18.00
22827;DHT22;11580;52.562;13.418;2023-05-19T10:18:13;24.30;17.20
22827;DHT22;11580;52.562;13.418;2023-05-19T10:20:46;24.40;16.70
22827;DHT22;11580;52.562;13.418;2023-05-19T10:23:15;24.40;16.50
22827;DHT22;11580;52.562;13.418;2023-05-19T10:25:43;24.50;16.70
22827;DHT22;11580;52.562;13.418;2023-05-19T10:28:16;24.50;16.60
22827;DHT22;11580;52.562;13.418;2023-05-19T10:30:49;24.60;16.30
22827;DHT22;11580;52.562;13.418;2023-05-19T10:33:29;24.60;16.20
22827;DHT22;11580;52.562;13.418;2023-05-19T10:36:24;24.60;16.10
22827;DHT22;11580;52.562;13.418;2023-05-19T10:39:14;24.70;15.60
22827;DHT22;11580;52.562;13.418;2023-05-19T10:41:49;24.80;16.30
22827;DHT22;11580;52.562;13.418;2023-05-19T10:44:35;24.80;15.70
22827;DHT22;11580;52.562;13.418;2023-05-19T10:47:10;24.90;15.70
22827;DHT22;11580;52.562;13.418;2023-05-19T10:49:38;25.00;16.20
22827;DHT22;11580;52.562;13.418;2023-05-19T10:52:18;25.10;16.00
22827;DHT22;11580;52.562;13.418;2023-05-19T10:54:47;25.10;15.00
22827;DHT22;11580;52.562;13.418;2023-05-19T10:57:16;25.10;15.50
22827;DHT22;11580;52.562;13.418;2023-05-19T10:59:44;25.10;15.30
22827;DHT22;11580;52.562;13.418;2023-05-19T11:02:38;25.10;15.20
22827;DHT22;11580;52.562;13.418;2023-05-19T11:05:07;25.00;15.30
22827;DHT22;11580;52.562;13.418;2023-05-19T11:07:35;24.90;15.40
22827;DHT22;11580;52.562;13.418;2023-05-19T11:10:06;24.90;15.50
22827;DHT22;11580;52.562;13.418;2023-05-19T11:12:41;24.80;15.10
22827;DHT22;11580;52.562;13.418;2023-05-19T11:15:11;24.80;15.60
22827;DHT22;11580;52.562;13.418;2023-05-19T11:17:40;24.80;15.50
22827;DHT22;11580;52.562;13.418;2023-05-19T11:20:08;24.80;15.80
22827;DHT22;11580;52.562;13.418;2023-05-19T11:23:03;24.90;15.70
22827;DHT22;11580;52.562;13.418;2023-05-19T11:25:40;25.00;15.40
22827;DHT22;11580;52.562;13.418;2023-05-19T11:28:10;25.10;15.10
22827;DHT22;11580;52.562;13.418;2023-05-19T11:30:41;25.20;15.20
22827;DHT22;11580;52.562;13.418;2023-05-19T11:33:09;25.30;15.10
22827;DHT22;11580;52.562;13.418;2023-05-19T11:35:36;25.30;15.70
22827;DHT22;11580;52.562;13.418;2023-05-19T11:38:05;25.30;15.10
22827;DHT22;11580;52.562;13.418;2023-05-19T11:40:32;25.40;15.10
22827;DHT22;11580;52.562;13.418;2023-05-19T11:42:59;25.50;15.00
22827;DHT22;11580;52.562;13.418;2023-05-19T11:45:28;25.60;15.00
22827;DHT22;11580;52.562;13.418;2023-05-19T11:47:59;25.80;14.80
22827;DHT22;11580;52.562;13.418;2023-05-19T11:50:27;25.90;14.40
22827;DHT22;11580;52.562;13.418;2023-05-19T11:52:54;26.00;14.40
22827;DHT22;11580;52.562;13.418;2023-05-19T11:55:22;26.00;14.00
22827;DHT22;11580;52.562;13.418;2023-05-19T11:57:55;26.00;14.70
22827;DHT22;11580;52.562;13.418;2023-05-19T12:00:23;25.90;14.20
22827;DHT22;11580;52.562;13.418;2023-05-19T12:02:51;25.90;14.20
22827;DHT22;11580;52.562;13.418;2023-05-19T12:05:20;25.90;14.00
22827;DHT22;11580;52.562;13.418;2023-05-19T12:07:49;25.90;13.70
22827;DHT22;11580;52.562;13.418;2023-05-19T12:10:17;25.90;14.10
22827;DHT22;11580;52.562;13.418;2023-05-19T12:12:47;25.80;14.00
22827;DHT22;11580;52.562;13.418;2023-05-19T12:15:17;25.70;14.00
22827;DHT22;11580;52.562;13.418;2023-05-19T12:17:48;25.60;14.00
22827;DHT22;11580;52.562;13.418;2023-05-19T12:20:16;25.60;13.80
22827;DHT22;11580;52.562;13.418;2023-05-19T12:22:45;25.60;13.70
22827;DHT22;11580;52.562;13.418;2023-05-19T12:25:14;25.60;13.50
22827;DHT22;11580;52.562;13.418;2023-05-19T12:27:42;25.50;14.10
22827;DHT22;11580;52.562;13.418;2023-05-19T12:30:10;25.50;14.10
22827;DHT22;11580;52.562;13.418;2023-05-19T12:32:39;25.40;13.50
22827;DHT22;11580;52.562;13.418;2023-05-19T12:35:06;25.50;13.50
22827;DHT22;11580;52.562;13.418;2023-05-19T12:37:35;25.40;14.00
22827;DHT22;11580;52.562;13.418;2023-05-19T12:40:13;25.50;13.40
22827;DHT22;11580;52.562;13.418;2023-05-19T12:42:43;25.50;13.50
22827;DHT22;11580;52.562;13.418;2023-05-19T12:45:11;25.60;13.60
22827;DHT22;11580;52.562;13.418;2023-05-19T12:47:38;25.60;13.60
22827;DHT22;11580;52.562;13.418;2023-05-19T12:50:06;25.70;13.50
22827;DHT22;11580;52.562;13.418;2023-05-19T12:52:41;25.70;13.50
22827;DHT22;11580;52.562;13.418;2023-05-19T12:55:11;25.80;13.90
22827;DHT22;11580;52.562;13.418;2023-05-19T12:57:39;25.80;13.50
22827;DHT22;11580;52.562;13.418;2023-05-19T13:00:12;25.80;13.60
22827;DHT22;11580;52.562;13.418;2023-05-19T13:02:55;25.80;13.40
22827;DHT22;11580;52.562;13.418;2023-05-19T13:05:24;25.90;13.30
22827;DHT22;11580;52.562;13.418;2023-05-19T13:07:56;25.90;13.60
22827;DHT22;11580;52.562;13.418;2023-05-19T13:10:27;25.90;13.60
22827;DHT22;11580;52.562;13.418;2023-05-19T13:12:57;25.90;13.40
22827;DHT22;11580;52.562;13.418;2023-05-19T13:15:26;25.90;13.30
22827;DHT22;11580;52.562;13.418;2023-05-19T13:17:56;25.80;13.20
22827;DHT22;11580;52.562;13.418;2023-05-19T13:20:24;25.80;13.10
22827;DHT22;11580;52.562;13.418;2023-05-19T13:22:51;25.60;13.30
22827;DHT22;11580;52.562;13.418;2023-05-19T13:25:18;25.50;13.20
22827;DHT22;11580;52.562;13.418;2023-05-19T13:27:47;25.40;13.20
22827;DHT22;11580;52.562;13.418;2023-05-19T13:30:16;25.30;13.30
22827;DHT22;11580;52.562;13.418;2023-05-19T13:32:43;25.20;13.30
22827;DHT22;11580;52.562;13.418;2023-05-19T13:35:12;25.00;13.40
22827;DHT22;11580;52.562;13.418;2023-05-19T13:37:40;25.00;13.70
22827;DHT22;11580;52.562;13.418;2023-05-19T13:40:08;24.90;13.70
22827;DHT22;11580;52.562;13.418;2023-05-19T13:42:36;24.80;13.90
22827;DHT22;11580;52.562;13.418;2023-05-19T13:45:05;24.80;14.00
22827;DHT22;11580;52.562;13.418;2023-05-19T13:47:34;24.70;14.10
22827;DHT22;11580;52.562;13.418;2023-05-19T13:50:01;24.70;14.20
22827;DHT22;11580;52.562;13.418;2023-05-19T13:52:30;24.70;14.20
22827;DHT22;11580;52.562;13.418;2023-05-19T13:54:57;24.60;14.00
22827;DHT22;11580;52.562;13.418;2023-05-19T13:57:25;24.70;14.70
22827;DHT22;11580;52.562;13.418;2023-05-19T13:59:52;24.60;14.80
22827;DHT22;11580;52.562;13.418;2023-05-19T14:02:21;24.70;14.50
22827;DHT22;11580;52.562;13.418;2023-05-19T14:04:49;24.70;14.40
22827;DHT22;11580;52.562;13.418;2023-05-19T14:07:16;24.70;15.10
22827;DHT22;11580;52.562;13.418;2023-05-19T14:09:44;24.70;14.60
22827;DHT22;11580;52.562;13.418;2023-05-19T14:12:11;24.70;14.60
22827;DHT22;11580;52.562;13.418;2023-05-19T14:14:38;24.80;14.50
22827;DHT22;11580;52.562;13.418;2023-05-19T14:17:06;24.80;14.40
22827;DHT22;11580;52.562;13.418;2023-05-19T14:19:34;24.70;14.20
22827;DHT22;11580;52.562;13.418;2023-05-19T14:22:01;24.60;14.30
22827;DHT22;11580;52.562;13.418;2023-05-19T14:24:29;24.50;14.30
22827;DHT22;11580;52.562;13.418;2023-05-19T14:26:56;24.40;14.40
22827;DHT22;11580;52.562;13.418;2023-05-19T14:29:23;24.30;14.60
22827;DHT22;11580;52.562;13.418;2023-05-19T14:31:51;24.20;14.70
22827;DHT22;11580;52.562;13.418;2023-05-19T14:34:18;24.20;15.40
22827;DHT22;11580;52.562;13.418;2023-05-19T14:36:47;24.20;14.80
22827;DHT22;11580;52.562;13.418;2023-05-19T14:39:14;24.20;15.60
22827;DHT22;11580;52.562;13.418;2023-05-19T14:41:41;24.20;15.20
22827;DHT22;11580;52.562;13.418;2023-05-19T14:44:08;24.30;15.20
22827;DHT22;11580;52.562;13.418;2023-05-19T14:46:36;24.50;15.10
22827;DHT22;11580;52.562;13.418;2023-05-19T14:49:03;24.70;15.70
22827;DHT22;11580;52.562;13.418;2023-05-19T14:51:31;24.80;15.00
22827;DHT22;11580;52.562;13.418;2023-05-19T14:53:59;24.90;14.80
22827;DHT22;11580;52.562;13.418;2023-05-19T14:56:27;25.00;14.60
22827;DHT22;11580;52.562;13.418;2023-05-19T14:58:54;25.10;14.40
22827;DHT22;11580;52.562;13.418;2023-05-19T15:01:21;25.10;14.30
22827;DHT22;11580;52.562;13.418;2023-05-19T15:03:48;25.10;14.30
22827;DHT22;11580;52.562;13.418;2023-05-19T15:06:15;25.10;14.20
22827;DHT22;11580;52.562;13.418;2023-05-19T15:08:42;25.00;14.20
22827;DHT22;11580;52.562;13.418;2023-05-19T15:11:11;24.90;14.20
22827;DHT22;11580;52.562;13.418;2023-05-19T15:13:38;24.90;14.20
22827;DHT22;11580;52.562;13.418;2023-05-19T15:16:06;24.80;14.20
22827;DHT22;11580;52.562;13.418;2023-05-19T15:18:35;24.70;14.20
22827;DHT22;11580;52.562;13.418;2023-05-19T15:21:02;24.70;14.30
22827;DHT22;11580;52.562;13.418;2023-05-19T15:23:29;24.60;14.30
22827;DHT22;11580;52.562;13.418;2023-05-19T15:25:56;24.50;14.90
22827;DHT22;11580;52.562;13.418;2023-05-19T15:28:26;24.50;14.40
22827;DHT22;11580;52.562;13.418;2023-05-19T15:30:53;24.40;14.20
22827;DHT22;11580;52.562;13.418;2023-05-19T15:33:20;24.40;14.30
22827;DHT22;11580;52.562;13.418;2023-05-19T15:35:47;24.30;14.10
22827;DHT22;11580;52.562;13.418;2023-05-19T15:38:17;24.20;14.70